Time;durP1;ratioP1;P1;durP2;ratioP2;P2;SDS_P1;SDS_P2;PMS_P1;PMS_P2;Temp;Humidity;BMP_temperature;BMP_pressure;BME280_temperature;BME280_humidity;BME280_pressure;Samples;Min_cycle;Max_cycle;Signal;HPM_P1;HPM_P2
2023/08/06 00:01:51;;;;;;;4.68;2.30;;;15.20;99.90;;;;;;5057550;28;20039;-71
2023/08/06 00:04:16;;;;;;;4.30;2.45;;;15.20;99.90;;;;;;5056869;28;20032;-71
2023/08/06 00:06:42;;;;;;;7.00;2.30;;;15.20;99.90;;;;;;5078244;28;20028;-72
2023/08/06 00:09:08;;;;;;;5.03;2.30;;;15.20;99.90;;;;;;5058805;28;20064;-72
2023/08/06 00:11:33;;;;;;;7.80;2.90;;;15.20;99.90;;;;;;5058340;28;20028;-72
2023/08/06 00:13:59;;;;;;;4.22;2.22;;;15.10;99.90;;;;;;5057179;28;20122;-70
2023/08/06 00:16:24;;;;;;;3.63;2.08;;;15.20;99.90;;;;;;5057416;28;20042;-72
2023/08/06 00:18:50;;;;;;;6.60;2.00;;;15.20;99.90;;;;;;5068331;28;20036;-72
2023/08/06 00:21:16;;;;;;;4.43;1.80;;;15.10;99.90;;;;;;5057363;28;20048;-70
2023/08/06 00:23:41;;;;;;;4.00;2.10;;;15.20;99.90;;;;;;5070112;28;20067;-70
2023/08/06 00:26:07;;;;;;;4.90;2.60;;;15.20;99.90;;;;;;5077610;28;20127;-72
2023/08/06 00:28:33;;;;;;;4.18;1.70;;;15.20;99.90;;;;;;5058178;28;20111;-70
2023/08/06 00:30:58;;;;;;;6.65;2.25;;;15.20;99.90;;;;;;5059182;28;20033;-71
2023/08/06 00:33:24;;;;;;;2.97;1.95;;;15.20;99.90;;;;;;5077853;28;20059;-73
2023/08/06 00:35:51;;;;;;;15.48;2.47;;;15.20;99.90;;;;;;5074609;28;20027;-70
2023/08/06 00:38:16;;;;;;;4.88;2.40;;;15.20;99.90;;;;;;5055428;28;20060;-70
2023/08/06 00:40:42;;;;;;;4.45;1.80;;;15.20;99.90;;;;;;5075378;28;20091;-71
2023/08/06 00:43:08;;;;;;;7.97;2.58;;;15.20;99.90;;;;;;5077562;28;20039;-73
2023/08/06 00:45:36;;;;;;;6.57;2.20;;;15.20;99.90;;;;;;5058109;28;20032;-71
2023/08/06 00:48:04;;;;;;;2.88;1.75;;;15.20;99.90;;;;;;5056664;28;20031;-71
2023/08/06 00:50:29;;;;;;;6.43;3.17;;;15.20;99.90;;;;;;5074559;28;20051;-71
2023/08/06 00:52:55;;;;;;;3.22;1.90;;;15.20;99.90;;;;;;5057100;28;20040;-71
2023/08/06 00:55:21;;;;;;;3.92;1.85;;;15.20;99.90;;;;;;5075475;28;20032;-71
2023/08/06 00:57:47;;;;;;;6.32;2.22;;;15.10;99.90;;;;;;5075271;28;20455;-71
2023/08/06 01:00:13;;;;;;;4.80;2.08;;;15.20;99.90;;;;;;5060076;28;20029;-72
2023/08/06 01:02:38;;;;;;;3.65;2.15;;;15.10;99.90;;;;;;5082359;28;20047;-70
2023/08/06 01:05:04;;;;;;;7.95;2.40;;;15.10;99.90;;;;;;5061751;28;20039;-70
2023/08/06 01:08:08;;;;;;;6.07;2.25;;;15.10;99.90;;;;;;5057897;28;20719;-69
2023/08/06 01:11:00;;;;;;;5.15;2.38;;;15.10;99.90;;;;;;5073514;28;20293;-72
2023/08/06 01:13:40;;;;;;;6.53;2.47;;;15.10;99.90;;;;;;5077617;28;20047;-70
2023/08/06 01:16:06;;;;;;;;;;;15.00;99.90;;;;;;5082649;28;20047;-71
2023/08/06 01:18:32;;;;;;;4.15;2.28;;;15.00;99.90;;;;;;5062589;28;19937;-72
2023/08/06 01:20:57;;;;;;;4.53;2.38;;;15.00;99.90;;;;;;5080218;28;20491;-71
2023/08/06 01:23:24;;;;;;;6.20;2.47;;;15.00;99.90;;;;;;5061107;28;20041;-70
2023/08/06 01:26:02;;;;;;;7.30;2.10;;;15.00;99.90;;;;;;5081164;28;20044;-71
2023/08/06 01:28:42;;;;;;;4.50;2.20;;;15.00;99.90;;;;;;5061559;28;20094;-71
2023/08/06 01:31:13;;;;;;;3.67;2.15;;;14.90;99.90;;;;;;5073746;28;20029;-71
2023/08/06 01:33:44;;;;;;;8.45;2.50;;;14.90;99.90;;;;;;5060446;28;20195;-72
2023/08/06 01:36:10;;;;;;;4.72;2.47;;;14.90;99.90;;;;;;5058207;28;20029;-72
2023/08/06 01:38:36;;;;;;;9.32;3.20;;;15.00;99.90;;;;;;5078290;28;20059;-72
2023/08/06 01:41:02;;;;;;;8.27;2.90;;;14.90;99.90;;;;;;5079976;28;20602;-71
2023/08/06 01:43:27;;;;;;;5.25;2.13;;;14.90;99.90;;;;;;5079250;28;20113;-71
2023/08/06 01:45:53;;;;;;;7.05;2.80;;;14.90;99.90;;;;;;5079795;28;20554;-71
2023/08/06 01:48:18;;;;;;;5.30;2.58;;;14.80;99.90;;;;;;5054893;28;20051;-72
2023/08/06 01:50:44;;;;;;;5.90;2.42;;;14.90;99.90;;;;;;5082193;28;20052;-71
2023/08/06 01:53:10;;;;;;;6.45;2.55;;;14.90;99.90;;;;;;5076308;28;20040;-72
2023/08/06 01:55:36;;;;;;;5.60;2.60;;;14.80;99.90;;;;;;5072902;28;20044;-73
2023/08/06 01:58:02;;;;;;;5.43;2.42;;;14.80;99.90;;;;;;5062006;28;20035;-71
2023/08/06 02:00:28;;;;;;;5.43;2.63;;;14.80;99.90;;;;;;5059510;28;20047;-71
2023/08/06 02:02:54;;;;;;;8.30;2.83;;;14.90;99.90;;;;;;5079598;28;20094;-72
2023/08/06 02:05:19;;;;;;;5.65;3.00;;;14.90;99.90;;;;;;5061055;28;20495;-71
2023/08/06 02:07:45;;;;;;;7.00;3.25;;;14.90;99.90;;;;;;5073408;28;20032;-70
2023/08/06 02:10:10;;;;;;;4.70;2.35;;;14.90;99.90;;;;;;5057322;28;20436;-72
2023/08/06 02:12:36;;;;;;;9.27;2.78;;;14.90;99.90;;;;;;5080965;28;20039;-72
2023/08/06 02:15:02;;;;;;;5.38;2.58;;;14.90;99.90;;;;;;5084782;28;20032;-71
2023/08/06 02:17:28;;;;;;;4.55;2.75;;;14.90;99.90;;;;;;5060435;28;20036;-71
2023/08/06 02:19:53;;;;;;;7.10;3.03;;;14.90;99.90;;;;;;5061717;28;20036;-71
2023/08/06 02:22:19;;;;;;;7.75;3.28;;;14.90;99.90;;;;;;5060924;28;20046;-71
2023/08/06 02:24:44;;;;;;;5.30;2.88;;;14.90;99.90;;;;;;5075174;28;20043;-72
2023/08/06 02:27:10;;;;;;;7.10;2.65;;;14.90;99.90;;;;;;5061517;28;20548;-72
2023/08/06 02:29:35;;;;;;;5.20;2.60;;;15.00;99.90;;;;;;5073054;28;20029;-71
2023/08/06 02:32:02;;;;;;;6.20;2.78;;;15.00;99.90;;;;;;5062915;28;20032;-70
2023/08/06 02:34:28;;;;;;;7.85;3.05;;;15.00;99.90;;;;;;5060902;28;21473;-72
2023/08/06 02:36:53;;;;;;;5.50;2.58;;;14.90;99.90;;;;;;5076563;28;20052;-71
2023/08/06 02:39:19;;;;;;;5.97;2.70;;;15.00;99.90;;;;;;5059918;28;20127;-71
2023/08/06 02:41:45;;;;;;;6.43;2.88;;;15.00;99.90;;;;;;5059825;28;20032;-71
2023/08/06 02:44:10;;;;;;;11.13;3.45;;;15.00;99.90;;;;;;5086164;28;20035;-72
2023/08/06 02:46:36;;;;;;;7.28;3.75;;;15.00;99.90;;;;;;5071938;28;20510;-72
2023/08/06 02:49:01;;;;;;;5.93;3.55;;;15.00;99.90;;;;;;5066730;28;20396;-71
2023/08/06 02:51:27;;;;;;;6.85;3.28;;;14.90;99.90;;;;;;5050646;28;20033;-72
2023/08/06 02:53:52;;;;;;;5.15;2.88;;;15.00;99.90;;;;;;5080645;28;20036;-71
2023/08/06 02:56:18;;;;;;;6.25;2.92;;;14.90;99.90;;;;;;5077864;28;20060;-71
2023/08/06 02:58:43;;;;;;;6.10;3.03;;;14.90;99.90;;;;;;5075159;28;20041;-72
2023/08/06 03:01:09;;;;;;;8.43;3.75;;;14.90;99.90;;;;;;5069129;28;20039;-71
2023/08/06 03:03:35;;;;;;;4.88;3.20;;;14.90;99.90;;;;;;5078774;28;20051;-70
2023/08/06 03:06:00;;;;;;;10.95;3.65;;;14.90;99.90;;;;;;5077091;28;20484;-70
2023/08/06 03:08:26;;;;;;;5.65;3.10;;;15.00;99.90;;;;;;5081888;28;20047;-71
2023/08/06 03:10:52;;;;;;;8.93;4.10;;;14.90;99.90;;;;;;5063148;28;20028;-72
2023/08/06 03:13:18;;;;;;;6.57;3.25;;;15.00;99.90;;;;;;5058796;28;20021;-71
2023/08/06 03:15:51;;;;;;;9.25;3.75;;;14.90;99.90;;;;;;5065543;28;20093;-70
2023/08/06 03:18:17;;;;;;;7.55;3.88;;;15.00;99.90;;;;;;5057319;28;20025;-72
2023/08/06 03:20:42;;;;;;;8.55;3.95;;;15.00;99.90;;;;;;5059836;28;20036;-72
2023/08/06 03:23:08;;;;;;;7.40;3.72;;;15.00;99.90;;;;;;5081049;28;20526;-72
2023/08/06 03:25:36;;;;;;;9.43;4.18;;;15.00;99.90;;;;;;5063522;28;20032;-71
2023/08/06 03:28:01;;;;;;;8.35;3.92;;;15.00;99.90;;;;;;5077933;28;20035;-71
2023/08/06 03:30:27;;;;;;;6.55;3.78;;;14.90;99.90;;;;;;5075136;28;20036;-71
2023/08/06 03:32:52;;;;;;;8.73;3.55;;;15.00;99.90;;;;;;5075973;28;20044;-71
2023/08/06 03:35:18;;;;;;;7.30;3.72;;;14.90;99.90;;;;;;5073958;28;20119;-70
2023/08/06 03:37:44;;;;;;;8.82;3.95;;;14.90;99.90;;;;;;5077019;28;20025;-71
2023/08/06 03:40:10;;;;;;;9.82;3.88;;;14.90;99.90;;;;;;5084915;28;20111;-71
2023/08/06 03:42:35;;;;;;;6.82;3.95;;;14.90;99.90;;;;;;5057589;28;20029;-70
2023/08/06 03:45:01;;;;;;;7.93;4.13;;;14.90;99.90;;;;;;5061139;28;20067;-72
2023/08/06 03:47:27;;;;;;;11.00;4.07;;;15.00;99.90;;;;;;5070785;28;20025;-72
2023/08/06 03:49:52;;;;;;;8.50;4.28;;;15.00;99.90;;;;;;5082469;28;20024;-70
2023/08/06 03:52:18;;;;;;;8.27;4.60;;;14.90;99.90;;;;;;5080749;28;20028;-70
2023/08/06 03:54:43;;;;;;;6.97;4.00;;;15.00;99.90;;;;;;5077023;28;20032;-72
2023/08/06 03:57:10;;;;;;;6.45;4.05;;;14.90;99.90;;;;;;5077332;28;20028;-70
2023/08/06 03:59:36;;;;;;;6.18;3.80;;;15.00;99.90;;;;;;5057404;28;20036;-70
2023/08/06 04:02:02;;;;;;;7.82;4.15;;;15.00;99.90;;;;;;5057579;28;20070;-72
2023/08/06 04:04:27;;;;;;;9.30;5.10;;;15.00;99.90;;;;;;5060317;28;20040;-71
2023/08/06 04:06:53;;;;;;;7.95;4.38;;;15.00;99.90;;;;;;5058341;28;20055;-72
2023/08/06 04:09:18;;;;;;;9.57;4.35;;;15.00;99.90;;;;;;5056412;28;20046;-70
2023/08/06 04:11:44;;;;;;;11.63;4.80;;;15.00;99.90;;;;;;5058655;28;20067;-72
2023/08/06 04:14:10;;;;;;;12.05;4.60;;;15.00;99.90;;;;;;5077806;28;20036;-72
2023/08/06 04:16:35;;;;;;;6.95;4.20;;;15.00;99.90;;;;;;5082659;28;20333;-71
2023/08/06 04:19:01;;;;;;;8.85;4.72;;;15.00;99.90;;;;;;5064476;28;20093;-72
2023/08/06 04:21:26;;;;;;;6.75;4.20;;;15.00;99.90;;;;;;5076560;28;20032;-71
2023/08/06 04:23:52;;;;;;;7.50;4.40;;;15.00;99.90;;;;;;5059931;28;20054;-71
2023/08/06 04:26:18;;;;;;;9.18;4.55;;;15.00;99.90;;;;;;5057531;28;20562;-72
2023/08/06 04:28:43;;;;;;;8.23;4.53;;;14.90;99.90;;;;;;5058544;28;20103;-71
2023/08/06 04:31:09;;;;;;;7.43;4.05;;;14.90;99.90;;;;;;5076983;28;20047;-71
2023/08/06 04:33:35;;;;;;;11.30;5.10;;;14.90;99.90;;;;;;5059921;28;20377;-71
2023/08/06 04:36:00;;;;;;;7.40;3.92;;;14.90;99.90;;;;;;5065224;28;20044;-71
2023/08/06 04:38:26;;;;;;;11.98;5.20;;;15.00;99.90;;;;;;5060114;28;20028;-71
2023/08/06 04:40:52;;;;;;;7.05;4.05;;;14.90;99.90;;;;;;5082412;28;20036;-72
2023/08/06 04:43:18;;;;;;;6.82;4.40;;;14.90;99.90;;;;;;5060826;28;20075;-73
2023/08/06 04:45:50;;;;;;;7.75;4.40;;;15.00;99.90;;;;;;5080904;28;20056;-72
2023/08/06 04:48:16;;;;;;;8.23;4.50;;;14.90;99.90;;;;;;5077126;28;20037;-72
2023/08/06 04:50:46;;;;;;;7.28;3.85;;;15.00;99.90;;;;;;5062876;28;20020;-70
2023/08/06 04:53:12;;;;;;;7.68;3.80;;;14.90;99.90;;;;;;5079017;28;20036;-70
2023/08/06 04:55:38;;;;;;;5.55;3.03;;;14.90;99.90;;;;;;5069163;28;20495;-70
2023/08/06 04:58:03;;;;;;;8.73;3.30;;;15.00;99.90;;;;;;5078460;28;20037;-72
2023/08/06 05:00:30;;;;;;;5.13;2.55;;;15.00;99.90;;;;;;5081810;28;20391;-72
2023/08/06 05:02:55;;;;;;;4.53;2.72;;;15.00;99.90;;;;;;5056766;28;20028;-72
2023/08/06 05:05:21;;;;;;;8.77;2.88;;;14.90;99.90;;;;;;5062736;28;20077;-73
2023/08/06 05:07:50;;;;;;;4.38;2.75;;;14.90;99.90;;;;;;5078309;28;20046;-72
2023/08/06 05:10:16;;;;;;;4.72;2.45;;;14.90;99.90;;;;;;5063135;28;20032;-72
2023/08/06 05:12:42;;;;;;;6.03;2.65;;;14.90;99.90;;;;;;5080342;28;20029;-72
2023/08/06 05:15:08;;;;;;;5.47;2.40;;;14.90;99.90;;;;;;5062874;28;20035;-70
2023/08/06 05:17:33;;;;;;;5.78;2.47;;;14.80;99.90;;;;;;5078463;28;20040;-72
2023/08/06 05:20:00;;;;;;;5.03;2.05;;;14.90;99.90;;;;;;5063754;28;20036;-71
2023/08/06 05:22:25;;;;;;;4.80;2.05;;;14.90;99.90;;;;;;5059459;28;20042;-73
2023/08/06 05:24:51;;;;;;;3.15;1.23;;;14.90;99.90;;;;;;5060212;28;20032;-72
2023/08/06 05:27:18;;;;;;;1.92;0.90;;;14.90;99.90;;;;;;5061858;28;20104;-72
2023/08/06 05:29:45;;;;;;;2.13;0.88;;;14.90;99.90;;;;;;5086608;28;20036;-70
2023/08/06 05:32:10;;;;;;;2.35;0.90;;;14.90;99.90;;;;;;5061121;28;20392;-72
2023/08/06 05:34:36;;;;;;;1.95;0.88;;;14.90;99.90;;;;;;5080542;28;20075;-72
2023/08/06 05:37:02;;;;;;;2.20;1.08;;;14.80;99.90;;;;;;5078822;28;20047;-72
2023/08/06 05:39:28;;;;;;;1.13;0.70;;;14.80;99.90;;;;;;5080460;28;20028;-72
2023/08/06 05:41:54;;;;;;;1.77;0.60;;;14.80;99.90;;;;;;5060282;28;20135;-71
2023/08/06 05:44:20;;;;;;;1.10;0.65;;;14.70;99.90;;;;;;5080408;28;20028;-71
2023/08/06 05:46:46;;;;;;;1.50;0.68;;;14.70;99.90;;;;;;5060823;28;20031;-71
2023/08/06 05:49:13;;;;;;;1.45;0.73;;;14.70;99.90;;;;;;5079772;28;20035;-71
2023/08/06 05:51:39;;;;;;;2.15;0.70;;;14.70;99.90;;;;;;5060040;28;20043;-71
2023/08/06 05:54:04;;;;;;;1.55;0.80;;;14.60;99.90;;;;;;5078011;28;20032;-71
2023/08/06 05:56:30;;;;;;;1.30;0.90;;;14.70;99.90;;;;;;5087087;28;20774;-71
2023/08/06 05:58:55;;;;;;;1.00;0.68;;;14.60;99.90;;;;;;5080521;28;20036;-71
2023/08/06 06:01:21;;;;;;;0.65;0.32;;;14.70;99.90;;;;;;5058956;28;20050;-72
2023/08/06 06:03:47;;;;;;;2.88;0.65;;;14.70;99.90;;;;;;5062417;28;20402;-71
2023/08/06 06:06:12;;;;;;;2.40;0.50;;;14.60;99.90;;;;;;5087534;28;20024;-72
2023/08/06 06:08:38;;;;;;;0.80;0.50;;;14.60;99.90;;;;;;5056947;28;20060;-71
2023/08/06 06:11:03;;;;;;;0.85;0.52;;;14.50;99.90;;;;;;5061033;28;20400;-71
2023/08/06 06:13:29;;;;;;;2.60;0.68;;;14.50;99.90;;;;;;5061511;28;20143;-71
2023/08/06 06:15:55;;;;;;;1.17;0.60;;;14.50;99.90;;;;;;5063226;28;20031;-71
2023/08/06 06:18:21;;;;;;;1.15;0.75;;;14.50;99.90;;;;;;5072760;28;20043;-70
2023/08/06 06:20:47;;;;;;;3.72;0.90;;;14.40;99.90;;;;;;5080946;28;20028;-70
2023/08/06 06:23:14;;;;;;;1.55;0.90;;;14.50;99.90;;;;;;5077564;28;20507;-72
2023/08/06 06:25:53;;;;;;;1.77;0.90;;;14.50;99.90;;;;;;5061356;28;20455;-70
2023/08/06 06:28:19;;;;;;;1.85;0.80;;;14.40;99.90;;;;;;5058616;28;20032;-72
2023/08/06 06:30:44;;;;;;;1.63;0.93;;;14.50;99.90;;;;;;5080184;28;20025;-72
2023/08/06 06:33:10;;;;;;;2.80;1.23;;;14.60;99.90;;;;;;5059565;28;20063;-70
2023/08/06 06:35:36;;;;;;;2.92;1.30;;;14.60;99.90;;;;;;5059942;28;20104;-71
2023/08/06 06:38:02;;;;;;;3.85;1.33;;;14.60;99.90;;;;;;5079812;28;20387;-73
2023/08/06 06:40:28;;;;;;;2.15;1.17;;;14.60;99.90;;;;;;5058846;28;20028;-71
2023/08/06 06:42:53;;;;;;;2.22;1.20;;;14.70;99.90;;;;;;5076671;28;20391;-71
2023/08/06 06:45:19;;;;;;;2.22;1.40;;;14.80;99.90;;;;;;5061339;28;20048;-71
2023/08/06 06:47:44;;;;;;;2.28;1.13;;;14.80;99.90;;;;;;5057952;28;20032;-71
2023/08/06 06:50:10;;;;;;;2.72;1.63;;;14.80;99.90;;;;;;5060270;28;20039;-72
2023/08/06 06:52:35;;;;;;;3.60;1.77;;;14.80;99.90;;;;;;5078400;28;20045;-71
2023/08/06 06:55:01;;;;;;;2.45;1.63;;;14.80;99.90;;;;;;5060135;28;20074;-71
2023/08/06 06:57:27;;;;;;;4.53;2.22;;;14.90;99.90;;;;;;5076294;28;20021;-71
2023/08/06 06:59:52;;;;;;;8.57;2.72;;;14.90;99.90;;;;;;5077216;28;20498;-72
2023/08/06 07:02:18;;;;;;;2.83;1.65;;;14.90;99.90;;;;;;5061071;28;20035;-72
2023/08/06 07:04:43;;;;;;;2.92;1.85;;;15.00;99.90;;;;;;5061512;28;20085;-71
2023/08/06 07:07:10;;;;;;;3.15;1.60;;;15.00;99.90;;;;;;5058667;28;20120;-77
2023/08/06 07:09:35;;;;;;;4.55;1.88;;;15.00;99.90;;;;;;5080145;28;20077;-72
2023/08/06 07:12:01;;;;;;;3.58;1.73;;;15.10;99.90;;;;;;5077906;28;20032;-71
2023/08/06 07:14:28;;;;;;;3.83;1.40;;;15.10;99.90;;;;;;5074197;28;20045;-72
2023/08/06 07:16:54;;;;;;;2.33;1.42;;;15.10;99.90;;;;;;5075824;28;20496;-71
2023/08/06 07:19:19;;;;;;;3.20;1.40;;;15.20;99.90;;;;;;5078430;28;20043;-71
2023/08/06 07:21:45;;;;;;;2.00;0.90;;;15.30;99.90;;;;;;5055267;28;20032;-71
2023/08/06 07:24:11;;;;;;;3.80;1.35;;;15.20;99.90;;;;;;5059841;28;20032;-72
2023/08/06 07:26:37;;;;;;;1.85;0.95;;;15.30;99.90;;;;;;5077438;28;20069;-72
2023/08/06 07:29:02;;;;;;;1.83;1.02;;;15.40;99.90;;;;;;5059480;28;20438;-71
2023/08/06 07:31:28;;;;;;;1.92;1.10;;;15.40;99.90;;;;;;5059669;28;20107;-70
2023/08/06 07:33:54;;;;;;;2.13;1.30;;;15.40;99.90;;;;;;5057694;28;20041;-71
2023/08/06 07:36:20;;;;;;;1.55;0.93;;;15.50;99.90;;;;;;5078534;28;20089;-71
2023/08/06 07:38:46;;;;;;;1.88;1.20;;;15.50;99.90;;;;;;5076009;28;20047;-72
2023/08/06 07:41:11;;;;;;;2.08;1.05;;;15.50;99.90;;;;;;5077756;28;20119;-73
2023/08/06 07:43:37;;;;;;;1.10;0.80;;;15.60;99.90;;;;;;5076927;28;20032;-72
2023/08/06 07:46:03;;;;;;;1.60;1.10;;;15.70;99.90;;;;;;5077398;28;20063;-72
2023/08/06 07:48:29;;;;;;;3.28;1.40;;;15.80;99.90;;;;;;5068127;28;21522;-72
2023/08/06 07:50:54;;;;;;;2.63;1.10;;;15.80;99.90;;;;;;5052156;28;20093;-72
2023/08/06 07:53:22;;;;;;;2.90;1.08;;;15.90;99.90;;;;;;5056012;28;20060;-73
2023/08/06 07:55:55;;;;;;;2.00;1.10;;;15.90;99.90;;;;;;5060861;28;20043;-71
2023/08/06 07:58:21;;;;;;;5.55;1.23;;;16.00;99.90;;;;;;5052865;28;20028;-74
2023/08/06 08:00:47;;;;;;;3.05;1.02;;;15.90;99.90;;;;;;5057125;28;20040;-71
2023/08/06 08:03:14;;;;;;;3.28;1.30;;;16.00;99.90;;;;;;5077584;28;20032;-72
2023/08/06 08:05:41;;;;;;;1.60;1.00;;;16.00;99.90;;;;;;5078187;28;20036;-71
2023/08/06 08:08:07;;;;;;;3.33;1.45;;;16.00;99.90;;;;;;5067247;28;20032;-71
2023/08/06 08:10:34;;;;;;;3.13;1.17;;;16.00;99.90;;;;;;5074320;28;20039;-71
2023/08/06 08:13:00;;;;;;;2.33;1.27;;;15.90;99.90;;;;;;5078776;28;20524;-72
2023/08/06 08:15:29;;;;;;;2.88;1.38;;;15.90;99.90;;;;;;5071445;28;20032;-71
2023/08/06 08:17:55;;;;;;;3.00;1.67;;;15.80;99.90;;;;;;5059622;28;20037;-71
2023/08/06 08:20:21;;;;;;;2.58;1.52;;;15.90;99.90;;;;;;5076845;28;20042;-71
2023/08/06 08:22:47;;;;;;;3.80;1.15;;;15.80;99.90;;;;;;5059348;28;20095;-71
2023/08/06 08:25:13;;;;;;;4.68;1.27;;;15.80;99.90;;;;;;5049751;28;20024;-71
2023/08/06 08:27:38;;;;;;;3.53;1.92;;;15.70;99.90;;;;;;5046734;28;20047;-71
2023/08/06 08:30:05;;;;;;;3.97;1.70;;;15.60;99.90;;;;;;5052396;28;20042;-71
2023/08/06 08:32:30;;;;;;;3.67;1.80;;;15.50;99.90;;;;;;5050796;28;20028;-71
2023/08/06 08:34:56;;;;;;;3.88;1.60;;;15.50;99.90;;;;;;5048592;28;20041;-71
2023/08/06 08:37:23;;;;;;;3.85;1.60;;;15.60;99.90;;;;;;5072564;28;20193;-72
2023/08/06 08:39:48;;;;;;;3.55;1.30;;;15.70;99.90;;;;;;5055595;28;20116;-71
2023/08/06 08:42:15;;;;;;;3.70;1.30;;;15.80;99.90;;;;;;5057725;28;20562;-73
2023/08/06 08:44:42;;;;;;;3.60;1.33;;;15.80;99.90;;;;;;5073862;28;20029;-71
2023/08/06 08:47:09;;;;;;;7.30;1.95;;;15.90;99.90;;;;;;5057451;28;20043;-71
2023/08/06 08:49:36;;;;;;;3.45;1.17;;;15.90;99.90;;;;;;5055719;28;20024;-73
2023/08/06 08:52:07;;;;;;;3.55;0.95;;;16.00;99.90;;;;;;5076230;28;20039;-71
2023/08/06 08:54:34;;;;;;;5.72;1.25;;;16.00;99.90;;;;;;5070183;28;20068;-72
2023/08/06 08:57:00;;;;;;;2.95;1.10;;;16.00;99.90;;;;;;5061260;28;20384;-72
2023/08/06 08:59:27;;;;;;;2.63;1.00;;;16.00;99.90;;;;;;5078261;28;20040;-71
2023/08/06 09:01:54;;;;;;;4.72;0.88;;;16.00;99.90;;;;;;5052689;28;20033;-71
2023/08/06 09:04:21;;;;;;;2.85;1.27;;;16.00;99.90;;;;;;5053204;28;20046;-72
2023/08/06 09:06:50;;;;;;;2.38;0.82;;;16.10;99.90;;;;;;5054457;28;20036;-72
2023/08/06 09:09:27;;;;;;;2.65;0.70;;;16.10;99.90;;;;;;5047432;28;20843;-71
2023/08/06 09:11:59;;;;;;;5.78;1.25;;;16.10;99.90;;;;;;5062052;28;20040;-71
2023/08/06 09:14:24;;;;;;;3.25;0.98;;;16.10;99.90;;;;;;5052839;28;20067;-72
2023/08/06 09:16:51;;;;;;;3.55;0.93;;;16.20;99.90;;;;;;5050343;28;20496;-74
2023/08/06 09:19:17;;;;;;;6.47;1.02;;;16.20;99.90;;;;;;5076441;28;20056;-74
2023/08/06 09:21:43;;;;;;;3.13;0.93;;;16.30;99.90;;;;;;5059089;28;20032;-71
2023/08/06 09:24:12;;;;;;;1.85;0.95;;;16.30;99.90;;;;;;5079592;28;20459;-70
2023/08/06 09:26:41;;;;;;;2.17;0.50;;;16.20;99.90;;;;;;5076664;28;20044;-72
2023/08/06 09:29:08;;;;;;;2.13;0.63;;;16.30;99.90;;;;;;5055553;28;20072;-72
2023/08/06 09:31:43;;;;;;;5.65;0.80;;;16.40;99.90;;;;;;5078423;28;20047;-72
2023/08/06 09:34:19;;;;;;;2.90;0.57;;;16.40;99.90;;;;;;5055970;28;20040;-72
2023/08/06 09:36:55;;;;;;;3.25;0.60;;;16.50;99.90;;;;;;5058939;28;20036;-73
2023/08/06 09:39:26;;;;;;;4.45;0.80;;;16.50;99.90;;;;;;5050711;28;20036;-72
2023/08/06 09:41:56;;;;;;;1.38;0.40;;;16.50;99.90;;;;;;5051225;28;20097;-73
2023/08/06 09:44:23;;;;;;;2.38;0.47;;;16.60;99.90;;;;;;5057514;28;20032;-73
2023/08/06 09:46:51;;;;;;;1.17;0.10;;;16.50;99.90;;;;;;5062229;28;20120;-72
2023/08/06 09:49:18;;;;;;;2.53;0.43;;;16.50;99.90;;;;;;5066784;28;20501;-73
2023/08/06 09:51:45;;;;;;;4.18;0.45;;;16.50;99.90;;;;;;5074039;28;20036;-72
2023/08/06 09:54:12;;;;;;;3.78;0.40;;;16.50;99.90;;;;;;5057752;28;20039;-74
2023/08/06 09:56:38;;;;;;;2.10;0.47;;;16.50;99.90;;;;;;5061308;28;20082;-72
2023/08/06 09:59:07;;;;;;;1.75;0.30;;;16.50;99.90;;;;;;5078750;28;20033;-71
2023/08/06 10:01:34;;;;;;;4.00;0.50;;;16.50;99.90;;;;;;5059636;28;21573;-72
2023/08/06 10:04:02;;;;;;;4.50;0.30;;;16.60;99.90;;;;;;5058667;28;20051;-72
2023/08/06 10:06:29;;;;;;;3.00;0.57;;;16.50;99.90;;;;;;5075768;28;20127;-71
2023/08/06 10:08:55;;;;;;;1.40;0.30;;;16.50;99.90;;;;;;5059811;28;20443;-73
2023/08/06 10:11:25;;;;;;;2.72;0.50;;;16.50;99.90;;;;;;5077427;28;20065;-74
2023/08/06 10:13:55;;;;;;;1.00;0.30;;;16.50;99.90;;;;;;5061858;28;20032;-74
2023/08/06 10:16:22;;;;;;;1.75;0.55;;;16.50;99.90;;;;;;5057609;28;20059;-74
2023/08/06 10:18:49;;;;;;;0.90;0.20;;;16.50;99.90;;;;;;5079914;28;20411;-73
2023/08/06 10:21:15;;;;;;;1.63;0.50;;;16.60;99.90;;;;;;5058194;28;20559;-72
2023/08/06 10:23:41;;;;;;;3.65;0.40;;;16.60;99.90;;;;;;5062638;28;20062;-73
2023/08/06 10:26:07;;;;;;;2.63;0.70;;;16.70;99.90;;;;;;5077522;28;20040;-73
2023/08/06 10:28:38;;;;;;;2.50;0.40;;;16.80;99.90;;;;;;5079160;28;20036;-72
2023/08/06 10:31:06;;;;;;;1.10;0.35;;;16.80;99.90;;;;;;5061552;28;20048;-71
2023/08/06 10:33:43;;;;;;;3.60;0.30;;;16.80;99.90;;;;;;5058143;28;20119;-73
2023/08/06 10:36:09;;;;;;;2.45;0.50;;;16.80;99.90;;;;;;5073762;28;20042;-73
2023/08/06 10:38:43;;;;;;;2.67;0.30;;;16.80;99.90;;;;;;5058107;28;20032;-73
2023/08/06 10:41:24;;;;;;;2.20;0.40;;;16.80;99.90;;;;;;5073778;28;20035;-73
2023/08/06 10:43:51;;;;;;;2.63;0.30;;;16.80;99.90;;;;;;5057052;28;20037;-70
2023/08/06 10:46:29;;;;;;;2.10;0.38;;;16.80;99.90;;;;;;5060211;28;20055;-72
2023/08/06 10:48:54;;;;;;;4.07;0.43;;;16.70;99.90;;;;;;5077242;28;20032;-74
2023/08/06 10:51:20;;;;;;;1.50;0.45;;;16.60;99.90;;;;;;5060142;28;20035;-72
2023/08/06 10:53:48;;;;;;;0.90;0.40;;;16.60;99.90;;;;;;5057434;28;20044;-73
2023/08/06 10:56:22;;;;;;;4.68;0.85;;;16.50;99.90;;;;;;5054900;28;20040;-74
2023/08/06 10:58:48;;;;;;;1.13;0.32;;;16.40;99.90;;;;;;5062798;28;20028;-72
2023/08/06 11:01:15;;;;;;;2.47;0.45;;;16.30;99.90;;;;;;5065416;28;20674;-69
2023/08/06 11:03:42;;;;;;;1.33;0.40;;;16.30;99.90;;;;;;5069862;28;20201;-72
2023/08/06 11:06:08;;;;;;;2.30;0.70;;;16.20;99.90;;;;;;5067394;28;20554;-73
2023/08/06 11:08:35;;;;;;;2.13;0.40;;;16.30;99.90;;;;;;5044704;28;20040;-73
2023/08/06 11:11:12;;;;;;;1.92;0.50;;;16.20;99.90;;;;;;5070442;28;20035;-73
2023/08/06 11:13:48;;;;;;;3.80;0.50;;;16.20;99.90;;;;;;5069061;28;20129;-74
2023/08/06 11:16:19;;;;;;;3.17;0.90;;;16.20;99.90;;;;;;5048453;28;20020;-72
2023/08/06 11:18:45;;;;;;;3.70;0.50;;;16.20;99.90;;;;;;5047707;28;20040;-70
2023/08/06 11:21:13;;;;;;;3.42;0.70;;;16.20;99.90;;;;;;5060861;28;20085;-77
2023/08/06 11:23:40;;;;;;;3.28;0.65;;;16.30;99.90;;;;;;5052223;28;20021;-72
2023/08/06 11:26:06;;;;;;;3.45;0.85;;;16.30;99.90;;;;;;5054874;28;20036;-72
2023/08/06 11:28:31;;;;;;;1.52;0.65;;;16.30;99.90;;;;;;5067352;28;20220;-72
2023/08/06 11:31:02;;;;;;;2.03;0.35;;;16.30;99.90;;;;;;5074749;28;20043;-71
2023/08/06 11:33:28;;;;;;;2.95;0.50;;;16.20;99.90;;;;;;5074715;28;20518;-70
2023/08/06 11:35:58;;;;;;;3.20;0.70;;;16.20;99.90;;;;;;5074824;28;20029;-72
2023/08/06 11:38:30;;;;;;;1.58;0.50;;;16.10;99.90;;;;;;5056768;28;20499;-72
2023/08/06 11:40:56;;;;;;;2.13;0.50;;;16.20;99.90;;;;;;5050379;28;20024;-73
2023/08/06 11:43:22;;;;;;;1.98;0.43;;;16.20;99.90;;;;;;5049043;28;20097;-73
2023/08/06 11:45:53;;;;;;;1.02;0.30;;;16.20;99.90;;;;;;5068991;28;20032;-73
2023/08/06 11:48:19;;;;;;;12.80;1.85;;;16.20;99.90;;;;;;5054526;28;20568;-70
2023/08/06 11:50:45;;;;;;;1.75;0.50;;;16.10;99.90;;;;;;5057555;28;20069;-73
2023/08/06 11:53:14;;;;;;;4.03;0.35;;;16.20;99.90;;;;;;5045647;28;20048;-74
2023/08/06 11:55:40;;;;;;;1.95;0.73;;;16.20;99.90;;;;;;5075309;28;20040;-71
2023/08/06 11:58:05;;;;;;;1.20;0.43;;;16.20;99.90;;;;;;5057849;28;20073;-71
2023/08/06 12:00:31;;;;;;;1.05;0.43;;;16.30;99.90;;;;;;5050901;28;20747;-73
2023/08/06 12:02:57;;;;;;;0.90;0.40;;;16.30;99.90;;;;;;5069789;28;20440;-71
2023/08/06 12:05:24;;;;;;;3.80;0.30;;;16.40;99.90;;;;;;5047357;28;20503;-74
2023/08/06 12:07:56;;;;;;;2.25;0.30;;;16.50;99.90;;;;;;5069843;28;20028;-73
2023/08/06 12:10:24;;;;;;;1.73;0.38;;;16.50;99.90;;;;;;5052886;28;20039;-73
2023/08/06 12:12:50;;;;;;;3.78;0.60;;;16.60;99.90;;;;;;5049232;28;20029;-73
2023/08/06 12:15:16;;;;;;;1.25;0.30;;;16.60;99.90;;;;;;5070041;28;20043;-73
2023/08/06 12:17:42;;;;;;;1.83;0.60;;;16.60;99.90;;;;;;5073585;28;20032;-74
2023/08/06 12:20:08;;;;;;;3.15;0.30;;;16.60;99.90;;;;;;5075038;28;20146;-73
2023/08/06 12:22:35;;;;;;;0.68;0.17;;;16.50;99.90;;;;;;5058698;28;20032;-72
2023/08/06 12:25:03;;;;;;;0.95;0.35;;;16.60;99.90;;;;;;5055284;28;20028;-72
2023/08/06 12:27:29;;;;;;;0.73;0.22;;;16.50;99.90;;;;;;5052466;28;20429;-72
2023/08/06 12:29:54;;;;;;;1.35;0.30;;;16.70;99.90;;;;;;5053000;28;20111;-72
2023/08/06 12:32:20;;;;;;;1.08;0.40;;;16.80;99.90;;;;;;5048516;28;20040;-72
2023/08/06 12:34:45;;;;;;;0.73;0.13;;;16.80;99.90;;;;;;5058428;28;20166;-72
2023/08/06 12:37:11;;;;;;;5.97;0.38;;;16.80;99.90;;;;;;5062054;28;20055;-73
2023/08/06 12:39:37;;;;;;;1.98;0.45;;;16.90;99.90;;;;;;5052411;28;20345;-72
2023/08/06 12:42:04;;;;;;;1.70;0.20;;;16.90;99.90;;;;;;5071978;28;20032;-72
2023/08/06 12:44:30;;;;;;;0.57;0.20;;;17.00;99.90;;;;;;5047651;28;20031;-71
2023/08/06 12:46:56;;;;;;;0.35;0.13;;;16.90;99.90;;;;;;5069364;28;20029;-70